sensor_id;sensor_type;location;lat;lon;timestamp;P1;durP1;ratioP1;P2;durP2;ratioP2
18501;SDS011;68437;52.236;5.710;2023-06-22T00:01:15;7.78;;;5.25;;
18501;SDS011;68437;52.236;5.710;2023-06-22T00:03:42;8.07;;;5.00;;
18501;SDS011;68437;52.236;5.710;2023-06-22T00:06:11;7.85;;;5.30;;
18501;SDS011;68437;52.236;5.710;2023-06-22T00:08:38;7.60;;;5.15;;
18501;SDS011;68437;52.236;5.710;2023-06-22T00:11:05;8.50;;;5.10;;
18501;SDS011;68437;52.236;5.710;2023-06-22T00:13:32;9.25;;;6.10;;
18501;SDS011;68437;52.236;5.710;2023-06-22T00:15:59;10.30;;;6.35;;
18501;SDS011;68437;52.236;5.710;2023-06-22T00:18:26;10.07;;;5.70;;
18501;SDS011;68437;52.236;5.710;2023-06-22T00:20:55;10.07;;;6.05;;
18501;SDS011;68437;52.236;5.710;2023-06-22T00:23:25;11.23;;;6.10;;
18501;SDS011;68437;52.236;5.710;2023-06-22T00:25:52;8.07;;;5.85;;
18501;SDS011;68437;52.236;5.710;2023-06-22T00:28:19;9.15;;;6.13;;
18501;SDS011;68437;52.236;5.710;2023-06-22T00:30:46;9.77;;;6.22;;
18501;SDS011;68437;52.236;5.710;2023-06-22T00:33:19;8.25;;;5.47;;
18501;SDS011;68437;52.236;5.710;2023-06-22T00:35:46;9.52;;;5.88;;
18501;SDS011;68437;52.236;5.710;2023-06-22T00:38:13;10.77;;;6.13;;
18501;SDS011;68437;52.236;5.710;2023-06-22T00:40:44;12.32;;;6.90;;
18501;SDS011;68437;52.236;5.710;2023-06-22T00:43:11;9.13;;;6.30;;
18501;SDS011;68437;52.236;5.710;2023-06-22T00:45:37;10.50;;;6.20;;
18501;SDS011;68437;52.236;5.710;2023-06-22T00:48:05;14.20;;;7.00;;
18501;SDS011;68437;52.236;5.710;2023-06-22T00:50:33;10.32;;;6.60;;
18501;SDS011;68437;52.236;5.710;2023-06-22T00:53:01;13.73;;;7.57;;
18501;SDS011;68437;52.236;5.710;2023-06-22T00:55:33;13.90;;;8.80;;
18501;SDS011;68437;52.236;5.710;2023-06-22T00:58:03;15.68;;;9.00;;
18501;SDS011;68437;52.236;5.710;2023-06-22T01:00:33;14.70;;;8.40;;
18501;SDS011;68437;52.236;5.710;2023-06-22T01:03:01;14.43;;;9.23;;
18501;SDS011;68437;52.236;5.710;2023-06-22T01:05:28;13.48;;;8.45;;
18501;SDS011;68437;52.236;5.710;2023-06-22T01:07:59;11.77;;;7.68;;
18501;SDS011;68437;52.236;5.710;2023-06-22T01:10:33;11.68;;;7.72;;
18501;SDS011;68437;52.236;5.710;2023-06-22T01:13:09;13.13;;;7.63;;
18501;SDS011;68437;52.236;5.710;2023-06-22T01:15:43;13.18;;;7.95;;
18501;SDS011;68437;52.236;5.710;2023-06-22T01:18:14;15.88;;;8.38;;
18501;SDS011;68437;52.236;5.710;2023-06-22T01:20:44;15.10;;;8.98;;
18501;SDS011;68437;52.236;5.710;2023-06-22T01:23:16;18.17;;;9.77;;
18501;SDS011;68437;52.236;5.710;2023-06-22T01:25:54;13.80;;;8.88;;
18501;SDS011;68437;52.236;5.710;2023-06-22T01:28:42;13.25;;;8.10;;
18501;SDS011;68437;52.236;5.710;2023-06-22T01:31:11;11.77;;;7.60;;
18501;SDS011;68437;52.236;5.710;2023-06-22T01:33:43;13.35;;;8.38;;
18501;SDS011;68437;52.236;5.710;2023-06-22T01:36:14;17.70;;;9.18;;
18501;SDS011;68437;52.236;5.710;2023-06-22T01:38:42;16.90;;;9.13;;
18501;SDS011;68437;52.236;5.710;2023-06-22T01:41:11;15.77;;;9.27;;
18501;SDS011;68437;52.236;5.710;2023-06-22T01:43:38;15.35;;;10.00;;
18501;SDS011;68437;52.236;5.710;2023-06-22T01:46:06;17.10;;;10.75;;
18501;SDS011;68437;52.236;5.710;2023-06-22T01:48:34;16.13;;;10.13;;
18501;SDS011;68437;52.236;5.710;2023-06-22T01:51:01;14.80;;;9.57;;
18501;SDS011;68437;52.236;5.710;2023-06-22T01:53:32;15.90;;;9.43;;
18501;SDS011;68437;52.236;5.710;2023-06-22T01:55:58;15.38;;;9.27;;
18501;SDS011;68437;52.236;5.710;2023-06-22T01:58:26;15.32;;;8.75;;
18501;SDS011;68437;52.236;5.710;2023-06-22T02:00:55;14.40;;;8.90;;
18501;SDS011;68437;52.236;5.710;2023-06-22T02:03:31;16.13;;;9.73;;
18501;SDS011;68437;52.236;5.710;2023-06-22T02:06:02;16.73;;;9.32;;
18501;SDS011;68437;52.236;5.710;2023-06-22T02:08:32;17.10;;;9.43;;
18501;SDS011;68437;52.236;5.710;2023-06-22T02:11:04;16.40;;;9.70;;
18501;SDS011;68437;52.236;5.710;2023-06-22T02:13:33;19.67;;;10.95;;
18501;SDS011;68437;52.236;5.710;2023-06-22T02:16:01;16.17;;;10.18;;
18501;SDS011;68437;52.236;5.710;2023-06-22T02:18:28;17.63;;;9.90;;
18501;SDS011;68437;52.236;5.710;2023-06-22T02:20:56;17.45;;;10.82;;
18501;SDS011;68437;52.236;5.710;2023-06-22T02:23:23;16.85;;;10.07;;
18501;SDS011;68437;52.236;5.710;2023-06-22T02:25:50;19.98;;;11.55;;
18501;SDS011;68437;52.236;5.710;2023-06-22T02:28:17;17.42;;;10.48;;
18501;SDS011;68437;52.236;5.710;2023-06-22T02:30:44;23.60;;;11.88;;
18501;SDS011;68437;52.236;5.710;2023-06-22T02:33:10;17.75;;;11.07;;
18501;SDS011;68437;52.236;5.710;2023-06-22T02:35:37;19.48;;;11.43;;
18501;SDS011;68437;52.236;5.710;2023-06-22T02:38:06;18.63;;;11.02;;
18501;SDS011;68437;52.236;5.710;2023-06-22T02:40:33;19.25;;;10.90;;
18501;SDS011;68437;52.236;5.710;2023-06-22T02:43:02;18.92;;;10.40;;
18501;SDS011;68437;52.236;5.710;2023-06-22T02:45:29;19.52;;;11.80;;
18501;SDS011;68437;52.236;5.710;2023-06-22T02:47:56;24.88;;;13.57;;
18501;SDS011;68437;52.236;5.710;2023-06-22T02:50:23;25.13;;;14.45;;
18501;SDS011;68437;52.236;5.710;2023-06-22T02:52:50;25.10;;;14.68;;
18501;SDS011;68437;52.236;5.710;2023-06-22T02:55:18;22.90;;;14.43;;
18501;SDS011;68437;52.236;5.710;2023-06-22T02:57:45;24.08;;;14.07;;
18501;SDS011;68437;52.236;5.710;2023-06-22T03:00:13;21.52;;;13.15;;
18501;SDS011;68437;52.236;5.710;2023-06-22T03:02:42;27.88;;;16.05;;
18501;SDS011;68437;52.236;5.710;2023-06-22T03:05:10;28.42;;;16.52;;
18501;SDS011;68437;52.236;5.710;2023-06-22T03:07:39;26.67;;;14.55;;
18501;SDS011;68437;52.236;5.710;2023-06-22T03:10:07;27.42;;;14.57;;
18501;SDS011;68437;52.236;5.710;2023-06-22T03:12:36;25.33;;;15.30;;
18501;SDS011;68437;52.236;5.710;2023-06-22T03:15:04;26.55;;;15.32;;
18501;SDS011;68437;52.236;5.710;2023-06-22T03:17:32;25.67;;;15.68;;
18501;SDS011;68437;52.236;5.710;2023-06-22T03:20:00;26.20;;;14.30;;
18501;SDS011;68437;52.236;5.710;2023-06-22T03:22:31;26.60;;;14.75;;
18501;SDS011;68437;52.236;5.710;2023-06-22T03:24:58;26.00;;;14.82;;
18501;SDS011;68437;52.236;5.710;2023-06-22T03:27:25;25.55;;;14.77;;
18501;SDS011;68437;52.236;5.710;2023-06-22T03:29:53;26.92;;;14.90;;
18501;SDS011;68437;52.236;5.710;2023-06-22T03:32:20;26.17;;;15.85;;
18501;SDS011;68437;52.236;5.710;2023-06-22T03:34:47;30.77;;;17.40;;
18501;SDS011;68437;52.236;5.710;2023-06-22T03:37:14;31.65;;;18.42;;
18501;SDS011;68437;52.236;5.710;2023-06-22T03:39:41;39.58;;;20.00;;
18501;SDS011;68437;52.236;5.710;2023-06-22T03:42:10;34.88;;;19.52;;
18501;SDS011;68437;52.236;5.710;2023-06-22T03:44:37;44.05;;;25.55;;
18501;SDS011;68437;52.236;5.710;2023-06-22T03:47:06;43.58;;;24.15;;
18501;SDS011;68437;52.236;5.710;2023-06-22T03:49:33;40.53;;;22.70;;
18501;SDS011;68437;52.236;5.710;2023-06-22T03:52:00;39.55;;;22.58;;
18501;SDS011;68437;52.236;5.710;2023-06-22T03:54:27;51.25;;;26.63;;
18501;SDS011;68437;52.236;5.710;2023-06-22T03:56:56;52.38;;;27.92;;
18501;SDS011;68437;52.236;5.710;2023-06-22T03:59:23;44.38;;;23.35;;
18501;SDS011;68437;52.236;5.710;2023-06-22T04:01:51;42.05;;;23.25;;
18501;SDS011;68437;52.236;5.710;2023-06-22T04:04:19;55.05;;;31.23;;
18501;SDS011;68437;52.236;5.710;2023-06-22T04:06:46;59.95;;;31.10;;
18501;SDS011;68437;52.236;5.710;2023-06-22T04:09:13;56.40;;;31.65;;
18501;SDS011;68437;52.236;5.710;2023-06-22T04:11:40;61.70;;;33.25;;
18501;SDS011;68437;52.236;5.710;2023-06-22T04:14:07;67.63;;;34.40;;
18501;SDS011;68437;52.236;5.710;2023-06-22T04:16:34;64.38;;;35.30;;
18501;SDS011;68437;52.236;5.710;2023-06-22T04:19:01;74.78;;;36.97;;
18501;SDS011;68437;52.236;5.710;2023-06-22T04:21:29;68.00;;;35.13;;
18501;SDS011;68437;52.236;5.710;2023-06-22T04:23:58;70.47;;;37.45;;
18501;SDS011;68437;52.236;5.710;2023-06-22T04:26:27;76.18;;;38.95;;
18501;SDS011;68437;52.236;5.710;2023-06-22T04:28:53;77.55;;;40.30;;
18501;SDS011;68437;52.236;5.710;2023-06-22T04:31:21;74.68;;;39.63;;
18501;SDS011;68437;52.236;5.710;2023-06-22T04:33:56;71.20;;;37.75;;
18501;SDS011;68437;52.236;5.710;2023-06-22T04:36:22;71.55;;;38.92;;
18501;SDS011;68437;52.236;5.710;2023-06-22T04:38:51;76.50;;;40.03;;
18501;SDS011;68437;52.236;5.710;2023-06-22T04:41:18;66.40;;;38.33;;
18501;SDS011;68437;52.236;5.710;2023-06-22T04:43:48;76.30;;;40.15;;
18501;SDS011;68437;52.236;5.710;2023-06-22T04:46:19;69.00;;;36.42;;
18501;SDS011;68437;52.236;5.710;2023-06-22T04:48:46;73.95;;;39.90;;
18501;SDS011;68437;52.236;5.710;2023-06-22T04:51:12;73.07;;;39.83;;
18501;SDS011;68437;52.236;5.710;2023-06-22T04:53:39;72.88;;;39.15;;
18501;SDS011;68437;52.236;5.710;2023-06-22T04:56:08;77.93;;;40.83;;
18501;SDS011;68437;52.236;5.710;2023-06-22T04:58:35;75.70;;;41.75;;
18501;SDS011;68437;52.236;5.710;2023-06-22T05:01:01;78.25;;;41.35;;
18501;SDS011;68437;52.236;5.710;2023-06-22T05:03:29;81.70;;;43.55;;
18501;SDS011;68437;52.236;5.710;2023-06-22T05:05:55;81.38;;;42.83;;
18501;SDS011;68437;52.236;5.710;2023-06-22T05:08:22;85.43;;;45.30;;
18501;SDS011;68437;52.236;5.710;2023-06-22T05:10:51;83.47;;;44.25;;
18501;SDS011;68437;52.236;5.710;2023-06-22T05:13:19;78.65;;;42.40;;
18501;SDS011;68437;52.236;5.710;2023-06-22T05:15:46;81.53;;;44.97;;
18501;SDS011;68437;52.236;5.710;2023-06-22T05:18:13;88.22;;;45.60;;
18501;SDS011;68437;52.236;5.710;2023-06-22T05:20:40;93.65;;;45.40;;
18501;SDS011;68437;52.236;5.710;2023-06-22T05:23:07;91.72;;;46.40;;
18501;SDS011;68437;52.236;5.710;2023-06-22T05:25:34;85.63;;;45.88;;
18501;SDS011;68437;52.236;5.710;2023-06-22T05:28:01;83.47;;;46.28;;
18501;SDS011;68437;52.236;5.710;2023-06-22T05:30:38;82.90;;;45.00;;
18501;SDS011;68437;52.236;5.710;2023-06-22T05:33:05;77.50;;;42.95;;
18501;SDS011;68437;52.236;5.710;2023-06-22T05:35:31;83.43;;;45.10;;
18501;SDS011;68437;52.236;5.710;2023-06-22T05:37:58;84.60;;;45.17;;
18501;SDS011;68437;52.236;5.710;2023-06-22T05:40:25;74.57;;;41.50;;
18501;SDS011;68437;52.236;5.710;2023-06-22T05:42:52;81.95;;;44.80;;
18501;SDS011;68437;52.236;5.710;2023-06-22T05:45:19;85.72;;;43.20;;
18501;SDS011;68437;52.236;5.710;2023-06-22T05:47:47;76.55;;;43.05;;
18501;SDS011;68437;52.236;5.710;2023-06-22T05:50:14;74.13;;;42.03;;
18501;SDS011;68437;52.236;5.710;2023-06-22T05:52:44;76.22;;;41.88;;
18501;SDS011;68437;52.236;5.710;2023-06-22T05:55:11;71.15;;;41.70;;
18501;SDS011;68437;52.236;5.710;2023-06-22T05:57:39;74.90;;;41.53;;
18501;SDS011;68437;52.236;5.710;2023-06-22T06:00:09;74.95;;;40.10;;
18501;SDS011;68437;52.236;5.710;2023-06-22T06:02:38;67.07;;;38.78;;
18501;SDS011;68437;52.236;5.710;2023-06-22T06:05:10;65.60;;;37.10;;
18501;SDS011;68437;52.236;5.710;2023-06-22T06:07:38;63.13;;;36.85;;
18501;SDS011;68437;52.236;5.710;2023-06-22T06:10:08;62.42;;;36.78;;
18501;SDS011;68437;52.236;5.710;2023-06-22T06:12:35;60.35;;;34.95;;
18501;SDS011;68437;52.236;5.710;2023-06-22T06:15:02;61.58;;;36.25;;
18501;SDS011;68437;52.236;5.710;2023-06-22T06:17:30;54.97;;;32.75;;
18501;SDS011;68437;52.236;5.710;2023-06-22T06:19:58;53.38;;;31.70;;
18501;SDS011;68437;52.236;5.710;2023-06-22T06:22:27;58.15;;;32.78;;
18501;SDS011;68437;52.236;5.710;2023-06-22T06:24:53;50.60;;;31.90;;
18501;SDS011;68437;52.236;5.710;2023-06-22T06:27:20;56.47;;;31.83;;
18501;SDS011;68437;52.236;5.710;2023-06-22T06:29:54;52.75;;;31.10;;
18501;SDS011;68437;52.236;5.710;2023-06-22T06:32:21;48.45;;;30.58;;
18501;SDS011;68437;52.236;5.710;2023-06-22T06:34:48;49.45;;;30.85;;
18501;SDS011;68437;52.236;5.710;2023-06-22T06:37:15;47.00;;;28.52;;
18501;SDS011;68437;52.236;5.710;2023-06-22T06:39:44;50.75;;;29.08;;
18501;SDS011;68437;52.236;5.710;2023-06-22T06:42:11;48.85;;;29.58;;
18501;SDS011;68437;52.236;5.710;2023-06-22T06:44:38;45.78;;;29.25;;
18501;SDS011;68437;52.236;5.710;2023-06-22T06:47:05;45.60;;;28.05;;
18501;SDS011;68437;52.236;5.710;2023-06-22T06:49:33;44.47;;;28.25;;
18501;SDS011;68437;52.236;5.710;2023-06-22T06:52:03;44.72;;;28.58;;
18501;SDS011;68437;52.236;5.710;2023-06-22T06:54:30;43.47;;;28.08;;
18501;SDS011;68437;52.236;5.710;2023-06-22T06:56:58;44.72;;;28.35;;
18501;SDS011;68437;52.236;5.710;2023-06-22T06:59:28;40.80;;;26.70;;
18501;SDS011;68437;52.236;5.710;2023-06-22T07:01:55;41.58;;;27.15;;
18501;SDS011;68437;52.236;5.710;2023-06-22T07:04:22;41.70;;;26.70;;
18501;SDS011;68437;52.236;5.710;2023-06-22T07:06:49;38.00;;;25.83;;
18501;SDS011;68437;52.236;5.710;2023-06-22T07:09:18;36.88;;;24.77;;
18501;SDS011;68437;52.236;5.710;2023-06-22T07:11:45;38.75;;;25.90;;
18501;SDS011;68437;52.236;5.710;2023-06-22T07:14:13;37.20;;;24.65;;
18501;SDS011;68437;52.236;5.710;2023-06-22T07:16:40;38.28;;;24.25;;
18501;SDS011;68437;52.236;5.710;2023-06-22T07:19:07;40.88;;;25.40;;
18501;SDS011;68437;52.236;5.710;2023-06-22T07:21:34;37.65;;;24.83;;
18501;SDS011;68437;52.236;5.710;2023-06-22T07:24:00;32.67;;;21.42;;
18501;SDS011;68437;52.236;5.710;2023-06-22T07:26:27;40.08;;;24.08;;
18501;SDS011;68437;52.236;5.710;2023-06-22T07:28:57;36.60;;;23.15;;
18501;SDS011;68437;52.236;5.710;2023-06-22T07:31:28;37.25;;;22.92;;
18501;SDS011;68437;52.236;5.710;2023-06-22T07:33:55;37.03;;;23.45;;
18501;SDS011;68437;52.236;5.710;2023-06-22T07:36:22;30.50;;;20.67;;
18501;SDS011;68437;52.236;5.710;2023-06-22T07:38:49;36.08;;;21.95;;
18501;SDS011;68437;52.236;5.710;2023-06-22T07:41:15;29.23;;;20.92;;
18501;SDS011;68437;52.236;5.710;2023-06-22T07:43:44;31.70;;;21.42;;
18501;SDS011;68437;52.236;5.710;2023-06-22T07:46:11;32.47;;;20.02;;
18501;SDS011;68437;52.236;5.710;2023-06-22T07:48:40;28.90;;;18.58;;
18501;SDS011;68437;52.236;5.710;2023-06-22T07:51:07;29.58;;;19.05;;
18501;SDS011;68437;52.236;5.710;2023-06-22T07:53:34;32.03;;;20.88;;
18501;SDS011;68437;52.236;5.710;2023-06-22T07:56:01;31.65;;;20.30;;
18501;SDS011;68437;52.236;5.710;2023-06-22T07:58:32;27.52;;;18.27;;
18501;SDS011;68437;52.236;5.710;2023-06-22T08:00:59;33.63;;;18.38;;
18501;SDS011;68437;52.236;5.710;2023-06-22T08:03:25;24.65;;;17.48;;
18501;SDS011;68437;52.236;5.710;2023-06-22T08:05:54;28.80;;;18.77;;
18501;SDS011;68437;52.236;5.710;2023-06-22T08:08:21;26.33;;;17.92;;
18501;SDS011;68437;52.236;5.710;2023-06-22T08:10:48;33.15;;;19.40;;
18501;SDS011;68437;52.236;5.710;2023-06-22T08:13:15;26.38;;;17.67;;
18501;SDS011;68437;52.236;5.710;2023-06-22T08:15:42;23.20;;;15.90;;
18501;SDS011;68437;52.236;5.710;2023-06-22T08:18:09;24.05;;;15.85;;
18501;SDS011;68437;52.236;5.710;2023-06-22T08:20:36;22.30;;;15.60;;
18501;SDS011;68437;52.236;5.710;2023-06-22T08:23:04;24.52;;;16.05;;
18501;SDS011;68437;52.236;5.710;2023-06-22T08:25:31;24.20;;;15.55;;
18501;SDS011;68437;52.236;5.710;2023-06-22T08:27:59;26.75;;;15.98;;
18501;SDS011;68437;52.236;5.710;2023-06-22T08:30:26;22.67;;;13.88;;
18501;SDS011;68437;52.236;5.710;2023-06-22T08:32:53;21.00;;;14.13;;
18501;SDS011;68437;52.236;5.710;2023-06-22T08:35:21;24.88;;;14.25;;
18501;SDS011;68437;52.236;5.710;2023-06-22T08:37:48;27.10;;;14.38;;
18501;SDS011;68437;52.236;5.710;2023-06-22T08:40:19;22.13;;;14.20;;
18501;SDS011;68437;52.236;5.710;2023-06-22T08:42:46;19.48;;;13.18;;
18501;SDS011;68437;52.236;5.710;2023-06-22T08:45:14;21.52;;;12.90;;
18501;SDS011;68437;52.236;5.710;2023-06-22T08:47:41;23.42;;;14.75;;
18501;SDS011;68437;52.236;5.710;2023-06-22T08:50:09;22.98;;;13.98;;
18501;SDS011;68437;52.236;5.710;2023-06-22T08:52:36;20.98;;;13.27;;
18501;SDS011;68437;52.236;5.710;2023-06-22T08:55:06;19.92;;;12.88;;
18501;SDS011;68437;52.236;5.710;2023-06-22T08:57:35;16.63;;;10.88;;
18501;SDS011;68437;52.236;5.710;2023-06-22T09:00:04;20.63;;;12.77;;
18501;SDS011;68437;52.236;5.710;2023-06-22T09:02:40;17.75;;;12.45;;
18501;SDS011;68437;52.236;5.710;2023-06-22T09:05:08;21.77;;;13.15;;
18501;SDS011;68437;52.236;5.710;2023-06-22T09:07:35;19.17;;;12.65;;
18501;SDS011;68437;52.236;5.710;2023-06-22T09:10:02;17.90;;;11.90;;
18501;SDS011;68437;52.236;5.710;2023-06-22T09:12:30;16.95;;;11.05;;
18501;SDS011;68437;52.236;5.710;2023-06-22T09:15:02;17.38;;;11.43;;
18501;SDS011;68437;52.236;5.710;2023-06-22T09:17:35;17.63;;;11.10;;
18501;SDS011;68437;52.236;5.710;2023-06-22T09:20:02;14.85;;;9.75;;
18501;SDS011;68437;52.236;5.710;2023-06-22T09:22:30;16.48;;;10.38;;
18501;SDS011;68437;52.236;5.710;2023-06-22T09:24:59;21.40;;;11.38;;
18501;SDS011;68437;52.236;5.710;2023-06-22T09:27:26;16.75;;;11.07;;
18501;SDS011;68437;52.236;5.710;2023-06-22T09:29:53;16.35;;;10.65;;
18501;SDS011;68437;52.236;5.710;2023-06-22T09:32:21;22.60;;;12.73;;
18501;SDS011;68437;52.236;5.710;2023-06-22T09:34:48;19.77;;;11.85;;
18501;SDS011;68437;52.236;5.710;2023-06-22T09:37:15;18.50;;;12.45;;
18501;SDS011;68437;52.236;5.710;2023-06-22T09:39:41;20.77;;;13.32;;
18501;SDS011;68437;52.236;5.710;2023-06-22T09:42:08;17.02;;;10.55;;
18501;SDS011;68437;52.236;5.710;2023-06-22T09:44:35;15.52;;;9.70;;
18501;SDS011;68437;52.236;5.710;2023-06-22T09:47:02;15.80;;;10.93;;
18501;SDS011;68437;52.236;5.710;2023-06-22T09:49:31;17.60;;;11.02;;
18501;SDS011;68437;52.236;5.710;2023-06-22T09:51:58;17.48;;;10.85;;
18501;SDS011;68437;52.236;5.710;2023-06-22T09:54:25;14.63;;;9.90;;
18501;SDS011;68437;52.236;5.710;2023-06-22T09:56:52;16.73;;;11.20;;
18501;SDS011;68437;52.236;5.710;2023-06-22T09:59:19;16.65;;;10.25;;
18501;SDS011;68437;52.236;5.710;2023-06-22T10:01:46;14.45;;;9.60;;
18501;SDS011;68437;52.236;5.710;2023-06-22T10:04:12;14.20;;;9.15;;
18501;SDS011;68437;52.236;5.710;2023-06-22T10:06:41;14.73;;;9.73;;
18501;SDS011;68437;52.236;5.710;2023-06-22T10:09:07;16.90;;;10.77;;
18501;SDS011;68437;52.236;5.710;2023-06-22T10:11:34;17.13;;;11.23;;
18501;SDS011;68437;52.236;5.710;2023-06-22T10:14:02;14.25;;;9.73;;
18501;SDS011;68437;52.236;5.710;2023-06-22T10:16:32;15.18;;;9.30;;
18501;SDS011;68437;52.236;5.710;2023-06-22T10:19:00;13.55;;;9.43;;
18501;SDS011;68437;52.236;5.710;2023-06-22T10:21:27;13.43;;;9.40;;
18501;SDS011;68437;52.236;5.710;2023-06-22T10:24:00;12.02;;;7.80;;
18501;SDS011;68437;52.236;5.710;2023-06-22T10:26:31;15.10;;;10.18;;
18501;SDS011;68437;52.236;5.710;2023-06-22T10:28:58;16.92;;;9.68;;
18501;SDS011;68437;52.236;5.710;2023-06-22T10:31:25;13.95;;;9.88;;
18501;SDS011;68437;52.236;5.710;2023-06-22T10:33:52;15.35;;;9.45;;
18501;SDS011;68437;52.236;5.710;2023-06-22T10:36:19;16.50;;;10.77;;
18501;SDS011;68437;52.236;5.710;2023-06-22T10:38:46;15.50;;;8.73;;
18501;SDS011;68437;52.236;5.710;2023-06-22T10:41:14;13.23;;;9.02;;
18501;SDS011;68437;52.236;5.710;2023-06-22T10:43:41;13.05;;;8.07;;
18501;SDS011;68437;52.236;5.710;2023-06-22T10:46:09;10.15;;;6.55;;
18501;SDS011;68437;52.236;5.710;2023-06-22T10:48:36;9.50;;;6.53;;
18501;SDS011;68437;52.236;5.710;2023-06-22T10:51:02;12.93;;;7.85;;
18501;SDS011;68437;52.236;5.710;2023-06-22T10:53:29;14.02;;;7.75;;
18501;SDS011;68437;52.236;5.710;2023-06-22T10:55:59;15.60;;;9.60;;
18501;SDS011;68437;52.236;5.710;2023-06-22T10:58:28;14.45;;;8.80;;
18501;SDS011;68437;52.236;5.710;2023-06-22T11:00:54;14.20;;;8.85;;
18501;SDS011;68437;52.236;5.710;2023-06-22T11:03:21;15.65;;;8.13;;
18501;SDS011;68437;52.236;5.710;2023-06-22T11:05:48;14.73;;;8.60;;
18501;SDS011;68437;52.236;5.710;2023-06-22T11:08:15;18.40;;;10.05;;
18501;SDS011;68437;52.236;5.710;2023-06-22T11:10:42;16.63;;;10.55;;
18501;SDS011;68437;52.236;5.710;2023-06-22T11:13:09;16.60;;;10.82;;
18501;SDS011;68437;52.236;5.710;2023-06-22T11:15:38;16.13;;;10.45;;
18501;SDS011;68437;52.236;5.710;2023-06-22T11:18:05;15.93;;;9.95;;
18501;SDS011;68437;52.236;5.710;2023-06-22T11:20:32;16.70;;;9.65;;
18501;SDS011;68437;52.236;5.710;2023-06-22T11:23:03;15.07;;;10.30;;
18501;SDS011;68437;52.236;5.710;2023-06-22T11:25:30;17.80;;;11.30;;
18501;SDS011;68437;52.236;5.710;2023-06-22T11:27:59;16.60;;;9.93;;
18501;SDS011;68437;52.236;5.710;2023-06-22T11:30:27;16.00;;;11.52;;
18501;SDS011;68437;52.236;5.710;2023-06-22T11:32:55;18.25;;;12.73;;
18501;SDS011;68437;52.236;5.710;2023-06-22T11:35:22;18.67;;;11.43;;
18501;SDS011;68437;52.236;5.710;2023-06-22T11:37:49;17.88;;;12.23;;
18501;SDS011;68437;52.236;5.710;2023-06-22T11:40:16;19.35;;;12.45;;
18501;SDS011;68437;52.236;5.710;2023-06-22T11:42:43;16.23;;;12.20;;
18501;SDS011;68437;52.236;5.710;2023-06-22T11:45:10;18.25;;;12.32;;
18501;SDS011;68437;52.236;5.710;2023-06-22T11:47:37;18.45;;;12.30;;
18501;SDS011;68437;52.236;5.710;2023-06-22T11:50:10;19.92;;;11.93;;
18501;SDS011;68437;52.236;5.710;2023-06-22T11:52:37;18.55;;;10.75;;
18501;SDS011;68437;52.236;5.710;2023-06-22T11:55:04;25.02;;;13.07;;
18501;SDS011;68437;52.236;5.710;2023-06-22T11:57:33;19.25;;;12.82;;
18501;SDS011;68437;52.236;5.710;2023-06-22T12:00:00;17.25;;;12.27;;
18501;SDS011;68437;52.236;5.710;2023-06-22T12:02:31;19.02;;;13.57;;
18501;SDS011;68437;52.236;5.710;2023-06-22T12:04:58;20.35;;;13.95;;
18501;SDS011;68437;52.236;5.710;2023-06-22T12:07:26;23.77;;;14.52;;
18501;SDS011;68437;52.236;5.710;2023-06-22T12:09:53;18.05;;;12.63;;
18501;SDS011;68437;52.236;5.710;2023-06-22T12:12:20;21.63;;;15.13;;
18501;SDS011;68437;52.236;5.710;2023-06-22T12:14:46;22.02;;;14.65;;
18501;SDS011;68437;52.236;5.710;2023-06-22T12:17:13;21.83;;;14.18;;
18501;SDS011;68437;52.236;5.710;2023-06-22T12:19:40;18.40;;;12.98;;
18501;SDS011;68437;52.236;5.710;2023-06-22T12:22:09;21.10;;;13.55;;
18501;SDS011;68437;52.236;5.710;2023-06-22T12:24:37;19.60;;;12.80;;
18501;SDS011;68437;52.236;5.710;2023-06-22T12:27:04;19.10;;;12.10;;
18501;SDS011;68437;52.236;5.710;2023-06-22T12:29:31;15.70;;;10.95;;
18501;SDS011;68437;52.236;5.710;2023-06-22T12:31:59;15.45;;;11.23;;
18501;SDS011;68437;52.236;5.710;2023-06-22T12:34:26;15.63;;;11.00;;
18501;SDS011;68437;52.236;5.710;2023-06-22T12:36:53;18.83;;;10.38;;
18501;SDS011;68437;52.236;5.710;2023-06-22T12:39:20;22.33;;;10.45;;
18501;SDS011;68437;52.236;5.710;2023-06-22T12:41:48;16.23;;;10.32;;
18501;SDS011;68437;52.236;5.710;2023-06-22T12:44:15;16.75;;;11.32;;
18501;SDS011;68437;52.236;5.710;2023-06-22T12:46:42;13.07;;;9.68;;
18501;SDS011;68437;52.236;5.710;2023-06-22T12:49:09;13.95;;;9.30;;
18501;SDS011;68437;52.236;5.710;2023-06-22T12:51:39;13.95;;;9.88;;
18501;SDS011;68437;52.236;5.710;2023-06-22T12:54:07;15.02;;;10.10;;
18501;SDS011;68437;52.236;5.710;2023-06-22T12:56:36;13.70;;;9.65;;
18501;SDS011;68437;52.236;5.710;2023-06-22T12:59:04;15.05;;;10.10;;
18501;SDS011;68437;52.236;5.710;2023-06-22T13:01:31;18.15;;;9.63;;
18501;SDS011;68437;52.236;5.710;2023-06-22T13:03:58;13.45;;;9.50;;
18501;SDS011;68437;52.236;5.710;2023-06-22T13:06:28;15.35;;;9.10;;
18501;SDS011;68437;52.236;5.710;2023-06-22T13:08:55;14.50;;;9.82;;
18501;SDS011;68437;52.236;5.710;2023-06-22T13:11:23;15.88;;;9.32;;
18501;SDS011;68437;52.236;5.710;2023-06-22T13:13:50;16.92;;;10.82;;
18501;SDS011;68437;52.236;5.710;2023-06-22T13:16:18;19.80;;;10.98;;
18501;SDS011;68437;52.236;5.710;2023-06-22T13:18:45;15.50;;;11.10;;
18501;SDS011;68437;52.236;5.710;2023-06-22T13:21:12;16.60;;;11.25;;
18501;SDS011;68437;52.236;5.710;2023-06-22T13:23:39;19.52;;;11.20;;
18501;SDS011;68437;52.236;5.710;2023-06-22T13:26:07;17.92;;;11.93;;
18501;SDS011;68437;52.236;5.710;2023-06-22T13:28:33;19.52;;;12.60;;
18501;SDS011;68437;52.236;5.710;2023-06-22T13:31:00;19.70;;;12.82;;
18501;SDS011;68437;52.236;5.710;2023-06-22T13:33:28;18.90;;;14.00;;
18501;SDS011;68437;52.236;5.710;2023-06-22T13:35:55;20.67;;;13.80;;
18501;SDS011;68437;52.236;5.710;2023-06-22T13:38:22;24.45;;;15.25;;
18501;SDS011;68437;52.236;5.710;2023-06-22T13:40:49;21.20;;;14.60;;
18501;SDS011;68437;52.236;5.710;2023-06-22T13:43:16;22.98;;;16.60;;
18501;SDS011;68437;52.236;5.710;2023-06-22T13:45:43;24.60;;;16.35;;
18501;SDS011;68437;52.236;5.710;2023-06-22T13:48:10;33.60;;;18.95;;
18501;SDS011;68437;52.236;5.710;2023-06-22T13:50:38;26.15;;;18.38;;
18501;SDS011;68437;52.236;5.710;2023-06-22T13:53:05;24.05;;;17.58;;
18501;SDS011;68437;52.236;5.710;2023-06-22T13:55:32;30.60;;;21.02;;
18501;SDS011;68437;52.236;5.710;2023-06-22T13:57:59;31.75;;;21.73;;
18501;SDS011;68437;52.236;5.710;2023-06-22T14:00:25;27.73;;;20.23;;
18501;SDS011;68437;52.236;5.710;2023-06-22T14:02:52;28.10;;;20.20;;
18501;SDS011;68437;52.236;5.710;2023-06-22T14:05:21;26.90;;;17.80;;
18501;SDS011;68437;52.236;5.710;2023-06-22T14:07:49;26.00;;;18.15;;
18501;SDS011;68437;52.236;5.710;2023-06-22T14:10:16;23.58;;;16.80;;
18501;SDS011;68437;52.236;5.710;2023-06-22T14:12:46;23.23;;;17.00;;
18501;SDS011;68437;52.236;5.710;2023-06-22T14:15:12;25.90;;;17.40;;
18501;SDS011;68437;52.236;5.710;2023-06-22T14:17:39;26.85;;;17.88;;
18501;SDS011;68437;52.236;5.710;2023-06-22T14:20:07;23.75;;;16.83;;
18501;SDS011;68437;52.236;5.710;2023-06-22T14:22:34;27.10;;;15.80;;
18501;SDS011;68437;52.236;5.710;2023-06-22T14:25:04;24.20;;;17.40;;
18501;SDS011;68437;52.236;5.710;2023-06-22T14:27:31;24.77;;;17.17;;
18501;SDS011;68437;52.236;5.710;2023-06-22T14:30:01;24.77;;;17.75;;